• Join FlightAware (Why Join?)
  • Login
  • US Flag 
04:51PM EDT


 

Airport Tracker/Info


-or-


 

Live Flight TrackerFlight Track Log ✈ DAL1349 ✈ 21-Apr-2013 ✈ KCRW - KATL

Flight Track Log - Related Links

Times and Time Zones

All times are in EDT time to prevent confusion due to time zone crossing. See the DAL1349 flight status page for this flight to view local times or setup timezone preferences in your user account.

Time Position Orientation Groundspeed Altitude Reporting Facility
EDT Latitude Longitude Course Direction KTS MPH feet Rate Location/Type
07:17AM 38.3903 -81.5603 207° Southwest 149 171 2,900  Level Indianapolis Center
07:18AM 38.3381 -81.5400 163° South 260 299 4,800 3,120 Climbing Indianapolis Center
07:19AM 38.2747 -81.5839 209° Southwest 258 297 9,300 3,120 Climbing Indianapolis Center
07:20AM 37.9967 -81.7944 204° Southwest  Level FlightAware Approximate
07:20AM 38.2019 -81.6267 205° Southwest 285 328 11,200  Level Indianapolis Center
07:21AM 37.9029 -81.8466 204° Southwest  Level FlightAware Approximate
07:21AM 38.1153 -81.6808 206° Southwest 344 396 14,100  Level Indianapolis Center
07:22AM 37.8107 -81.9028 207° Southwest  Level FlightAware Approximate
07:22AM 38.0244 -81.7358 206° Southwest 357 411 17,400  Level Indianapolis Center
07:23AM 37.9308 -81.7900 205° Southwest 366 421 19,500 2,520 Climbing Indianapolis Center
07:24AM 37.8242 -81.8567 206° Southwest 382 440 22,500 2,520 Climbing Indianapolis Center
07:25AM 37.7272 -81.9156 206° Southwest 385 443 24,700 2,100 Climbing Indianapolis Center
07:26AM 37.6278 -81.9758 206° Southwest 394 453 26,800 1,800 Climbing Indianapolis Center
07:27AM 37.5275 -82.0361 205° Southwest 397 457 28,400 1,440 Climbing Indianapolis Center
07:28AM 37.4247 -82.0989 206° Southwest 406 467 29,800 1,620 Climbing Indianapolis Center
07:29AM 37.3717 -82.1300 205° Southwest 407 468 30,700 2,100 Climbing Atlanta Center
07:30AM 37.2683 -82.1925 206° Southwest 412 474 32,800 1,560 Climbing Atlanta Center
07:31AM 37.1692 -82.2494 205° Southwest 407 468 33,900 1,380 Climbing Atlanta Center
07:32AM 37.0700 -82.3089 206° Southwest 401 461 35,600 1,020 Climbing Atlanta Center
07:33AM 36.9728 -82.3656 205° Southwest 396 456 36,000 240 Climbing Atlanta Center
07:33AM 36.9200 -82.3967 205° Southwest 389 448 36,000  Level Indianapolis Center
07:34AM 36.8714 -82.4247 205° Southwest 396 456 36,000  Level Atlanta Center
07:35AM 36.7844 -82.4758 205° Southwest 396 456 36,000  Level Atlanta Center
07:36AM 36.6831 -82.5322 204° Southwest 396 456 36,000  Level Atlanta Center
07:37AM 36.5858 -82.5936 207° Southwest 396 456 36,000  Level Atlanta Center
07:38AM 36.4883 -82.6494 205° Southwest 396 456 36,000  Level Atlanta Center
07:39AM 36.3889 -82.7081 205° Southwest 396 456 36,000  Level Atlanta Center
07:40AM 36.2914 -82.7636 205° Southwest 396 456 36,000  Level Atlanta Center
07:41AM 36.1919 -82.8219 205° Southwest 396 456 36,000  Level Atlanta Center
07:42AM 36.0903 -82.8800 205° Southwest 396 456 36,000  Level Atlanta Center
07:43AM 35.9825 -82.9406 204° Southwest 396 456 36,000 -420 Level Atlanta Center
07:44AM 35.8828 -82.9981 205° Southwest 396 456 35,200 -540 Descending Atlanta Center
07:45AM 35.7811 -83.0533 204° Southwest 401 461 35,000 -120 Descending Atlanta Center
07:46AM 35.6750 -83.1031 201° Southwest 401 461 35,000 -360 Level Atlanta Center
07:47AM 35.5733 -83.1528 202° Southwest 401 461 34,400 -840 Descending Atlanta Center
07:48AM 35.4672 -83.2025 201° Southwest 406 467 33,400 -1,020 Descending Atlanta Center
07:49AM 35.3653 -83.2492 200° South 406 467 32,400 -1,020 Descending Atlanta Center
07:50AM 35.2611 -83.3011 202° Southwest 401 461 31,400 -1,020 Descending Atlanta Center
07:51AM 35.1572 -83.3478 200° South 401 461 30,400 -1,020 Descending Atlanta Center
07:52AM 35.0511 -83.4019 203° Southwest 412 474 29,400 -1,020 Descending Atlanta Center
07:53AM 34.9408 -83.4533 201° Southwest 412 474 28,400 -1,020 Descending Atlanta Center
07:54AM 34.8344 -83.5022 201° Southwest 412 474 27,400 -1,020 Descending Atlanta Center
07:55AM 34.7261 -83.5536 201° Southwest 412 474 26,400 -900 Descending Atlanta Center
07:56AM 34.6325 -83.5944 200° South 407 468 25,600 -900 Descending Atlanta Center
07:57AM 34.5303 -83.6406 200° South 401 461 24,600 -1,080 Descending Atlanta Center
07:58AM 34.4261 -83.6861 200° South 401 461 23,500 -1,980 Descending Atlanta Center
07:59AM 34.3219 -83.7369 202° Southwest 401 461 20,700 -2,700 Descending Atlanta Center
08:00AM 34.2261 -83.7825 201° Southwest 387 445 18,100 -2,760 Descending Atlanta Center
08:01AM 34.1197 -83.8306 201° Southwest 380 437 15,200 -2,160 Descending Atlanta Center
08:02AM 34.0333 -83.9167 220° Southwest 368 423 13,400 -1,560 Descending Atlanta TRACON
08:03AM 33.9667 -84.0000 226° Southwest 345 397 12,000 -780 Descending Atlanta TRACON
08:04AM 33.9000 -84.1000 231° Southwest 365 420 12,000  Level Atlanta TRACON
08:05AM 33.8333 -84.2000 231° Southwest 361 415 12,000  Level Atlanta TRACON
08:06AM 33.7833 -84.2833 234° Southwest 305 351 12,000 -900 Level Atlanta TRACON
08:07AM 33.7333 -84.3500 228° Southwest 276 318 10,200 -2,340 Descending Atlanta TRACON
08:08AM 33.7333 -84.4333 270° West 272 313 7,600 -1,860 Descending Atlanta TRACON
08:09AM 33.7333 -84.5333 270° West 269 310 6,700 -1,380 Descending Atlanta TRACON
08:10AM 33.7167 -84.6000 253° West 251 289 4,900 -1,440 Descending Atlanta TRACON
08:11AM 33.6667 -84.6000 180° South 197 227 3,800 -960 Descending Atlanta TRACON
08:12AM 33.6500 -84.5333 107° East 157 181 2,900 -900 Descending Atlanta TRACON
08:13AM 33.6500 -84.5000 90° East 119 137 2,000 -840 Descending Atlanta TRACON
08:14AM 33.6500 -84.4667 90° East 118 136 1,400 -720 Descending Atlanta TRACON
08:16AM 33.6367 -84.4279 64° Northeast  Level Estimated
08:23AM 33.6367 -84.4279 64° Northeast  Level Estimated